Time;durP1;ratioP1;P1;durP2;ratioP2;P2;SDS_P1;SDS_P2;PMS_P1;PMS_P2;Temp;Humidity;BMP_temperature;BMP_pressure;BME280_temperature;BME280_humidity;BME280_pressure;Samples;Min_cycle;Max_cycle;Signal;HPM_P1;HPM_P2
2021/12/26 00:01:04;;;;;;;6.73;2.00;;;-6.40;99.90;;;;;;5060151;28;20079;-77
2021/12/26 00:03:35;;;;;;;6.60;2.27;;;-6.30;99.90;;;;;;5028544;28;20123;-77
2021/12/26 00:06:06;;;;;;;7.20;2.28;;;-6.50;99.90;;;;;;5079768;28;20056;-78
2021/12/26 00:08:36;;;;;;;3.78;1.67;;;-6.50;99.90;;;;;;5022110;28;20040;-77
2021/12/26 00:11:02;;;;;;;2.73;1.53;;;-6.50;99.90;;;;;;5041831;28;20611;-78
2021/12/26 00:13:29;;;;;;;6.20;2.13;;;-6.50;99.90;;;;;;5041219;28;20038;-77
2021/12/26 00:15:55;;;;;;;3.33;1.80;;;-6.60;99.90;;;;;;5056020;28;20129;-78
2021/12/26 00:18:21;;;;;;;5.57;2.10;;;-6.60;99.90;;;;;;5028774;28;20064;-77
2021/12/26 00:20:47;;;;;;;7.50;2.70;;;-5.80;99.90;;;;;;5040447;28;20044;-77
2021/12/26 00:23:14;;;;;;;5.83;2.50;;;-6.60;99.90;;;;;;5040135;28;20617;-78
2021/12/26 00:25:40;;;;;;;3.73;2.00;;;-6.60;99.90;;;;;;5042523;28;20049;-77
2021/12/26 00:28:06;;;;;;;3.53;2.00;;;-6.60;99.90;;;;;;5039179;28;20124;-77
2021/12/26 00:30:32;;;;;;;9.27;2.27;;;-6.70;99.90;;;;;;5042749;28;20120;-77
2021/12/26 00:32:58;;;;;;;4.73;2.10;;;-6.60;99.90;;;;;;5071701;28;20061;-77
2021/12/26 00:35:24;;;;;;;4.87;1.97;;;-6.70;99.90;;;;;;5066075;28;20119;-77
2021/12/26 00:37:50;;;;;;;6.90;2.00;;;-6.70;99.90;;;;;;5024675;28;20045;-77
2021/12/26 00:40:19;;;;;;;5.40;2.00;;;-6.60;99.90;;;;;;5059292;28;20045;-77
2021/12/26 00:42:46;;;;;;;4.20;2.10;;;-6.70;99.90;;;;;;5022509;28;20037;-77
2021/12/26 00:45:12;;;;;;;5.60;2.70;;;-6.70;99.90;;;;;;5065946;28;20037;-77
2021/12/26 00:47:39;;;;;;;8.70;3.00;;;-6.60;99.90;;;;;;5074499;28;20099;-77
2021/12/26 00:50:08;;;;;;;11.43;3.33;;;-6.60;99.90;;;;;;5038620;28;20106;-77
2021/12/26 00:52:34;;;;;;;5.00;2.70;;;-6.60;99.90;;;;;;5076538;28;20069;-77
2021/12/26 00:55:03;;;;;;;5.30;2.10;;;-6.70;99.90;;;;;;5057596;28;20069;-78
2021/12/26 00:57:29;;;;;;;3.83;2.30;;;-6.70;99.90;;;;;;5037920;28;20041;-77
2021/12/26 00:59:55;;;;;;;6.27;2.20;;;-6.70;99.90;;;;;;5060675;28;20438;-77
2021/12/26 01:02:21;;;;;;;4.50;2.00;;;-6.70;99.90;;;;;;5056553;28;20044;-78
2021/12/26 01:04:46;;;;;;;6.67;2.43;;;-6.70;99.90;;;;;;5039872;28;20040;-78
2021/12/26 01:07:25;;;;;;;5.30;2.57;;;-6.70;99.90;;;;;;5044940;28;20477;-77
2021/12/26 01:09:52;;;;;;;5.30;2.40;;;-6.70;99.90;;;;;;5026982;28;20083;-77
2021/12/26 01:12:19;;;;;;;4.03;2.20;;;-6.70;99.90;;;;;;5063230;28;20037;-77
2021/12/26 01:14:50;;;;;;;4.13;2.57;;;-6.70;99.90;;;;;;5064043;28;20397;-77
2021/12/26 01:17:20;;;;;;;4.60;2.53;;;-6.70;99.90;;;;;;5010998;28;20040;-77
2021/12/26 01:19:50;;;;;;;5.53;2.70;;;-6.70;99.90;;;;;;5046029;28;20056;-78
2021/12/26 01:22:18;;;;;;;4.90;2.23;;;-6.70;99.90;;;;;;5063531;28;20107;-78
2021/12/26 01:24:46;;;;;;;3.60;2.00;;;-6.70;99.90;;;;;;5043665;28;20041;-78
2021/12/26 01:27:12;;;;;;;3.87;2.30;;;-6.70;99.90;;;;;;5059922;28;20041;-77
2021/12/26 01:29:38;;;;;;;4.60;1.90;;;-4.60;99.90;;;;;;5026824;28;20174;-77
2021/12/26 01:32:05;;;;;;;4.43;1.90;;;-6.70;99.90;;;;;;5046835;28;20675;-77
2021/12/26 01:34:32;;;;;;;9.07;3.20;;;-6.70;99.90;;;;;;5057130;28;20094;-76
2021/12/26 01:36:58;;;;;;;3.30;1.80;;;-6.70;99.90;;;;;;5045365;28;20338;-76
2021/12/26 01:39:24;;;;;;;6.80;2.10;;;-6.80;99.90;;;;;;5042885;28;20033;-76
2021/12/26 01:41:50;;;;;;;5.27;2.00;;;-6.70;99.90;;;;;;5046876;28;20558;-77
2021/12/26 01:44:17;;;;;;;4.40;2.07;;;-6.70;99.90;;;;;;5045555;28;20025;-77
2021/12/26 01:46:45;;;;;;;3.63;2.23;;;-6.70;99.90;;;;;;5027442;28;20164;-77
2021/12/26 01:49:17;;;;;;;4.00;2.10;;;-6.70;99.90;;;;;;5039843;28;20115;-77
2021/12/26 01:51:45;;;;;;;3.20;1.90;;;-6.70;99.90;;;;;;5031002;28;20049;-77
2021/12/26 01:54:13;;;;;;;4.17;2.07;;;-6.60;99.90;;;;;;5060935;28;20141;-77
2021/12/26 01:56:41;;;;;;;4.50;1.90;;;-6.60;99.90;;;;;;5029805;28;20072;-77
2021/12/26 01:59:11;;;;;;;4.17;1.80;;;-6.60;99.90;;;;;;5029775;28;20123;-77
2021/12/26 02:01:37;;;;;;;6.03;1.60;;;-6.60;99.90;;;;;;5029510;28;20037;-77
2021/12/26 02:04:03;;;;;;;5.33;1.57;;;-6.60;99.90;;;;;;5044229;28;20044;-77
2021/12/26 02:06:30;;;;;;;2.53;1.40;;;-6.70;99.90;;;;;;5057007;28;20037;-77
2021/12/26 02:08:56;;;;;;;4.37;2.27;;;-6.60;99.90;;;;;;5042168;28;20065;-77
2021/12/26 02:11:22;;;;;;;4.67;1.63;;;-6.70;99.90;;;;;;5025680;28;20025;-77
2021/12/26 02:13:47;;;;;;;3.20;1.70;;;-6.70;99.90;;;;;;5046707;28;20378;-77
2021/12/26 02:16:14;;;;;;;3.20;1.57;;;-6.70;99.90;;;;;;5081460;28;20404;-77
2021/12/26 02:18:41;;;;;;;3.20;1.60;;;-6.70;99.90;;;;;;5049270;28;20039;-77
2021/12/26 02:28:46;;;;;;;3.93;2.23;;;-6.70;99.90;;;;;;5078258;28;20411;-77
2021/12/26 02:31:14;;;;;;;4.27;1.83;;;-6.70;99.90;;;;;;5056306;28;20044;-77
2021/12/26 02:33:39;;;;;;;5.23;1.57;;;-6.70;99.90;;;;;;5050788;28;20452;-77
2021/12/26 02:36:06;;;;;;;3.40;1.80;;;-6.80;99.90;;;;;;5077431;28;20047;-77
2021/12/26 02:38:33;;;;;;;4.93;2.30;;;-6.80;99.90;;;;;;5028733;28;20039;-77
2021/12/26 02:40:59;;;;;;;3.70;1.30;;;-6.80;99.90;;;;;;5031245;28;20455;-77
2021/12/26 02:43:27;;;;;;;5.73;1.43;;;-6.00;99.90;;;;;;5045197;28;20041;-77
2021/12/26 02:45:53;;;;;;;3.40;1.63;;;-6.80;99.90;;;;;;5021664;28;20048;-77
2021/12/26 02:48:20;;;;;;;5.40;1.77;;;-6.80;99.90;;;;;;5046829;28;20120;-76
2021/12/26 02:50:52;;;;;;;5.00;1.70;;;-6.90;99.90;;;;;;5048481;28;20029;-76
2021/12/26 02:53:20;;;;;;;2.97;1.63;;;-6.90;99.90;;;;;;5038911;28;20137;-76
2021/12/26 02:55:58;;;;;;;3.30;1.63;;;-6.90;99.90;;;;;;5038718;28;20049;-77
2021/12/26 02:58:23;;;;;;;5.13;1.73;;;-6.90;99.90;;;;;;5040265;28;20037;-77
2021/12/26 03:00:56;;;;;;;3.80;1.90;;;-6.90;99.90;;;;;;5057416;28;20045;-77
2021/12/26 03:03:22;;;;;;;3.57;1.90;;;-6.90;99.90;;;;;;5059620;28;20486;-77
2021/12/26 03:05:57;;;;;;;3.80;1.77;;;-6.90;99.90;;;;;;5041989;28;20086;-77
2021/12/26 03:08:23;;;;;;;4.80;1.77;;;-6.90;99.90;;;;;;5058024;28;20040;-77
2021/12/26 03:10:48;;;;;;;3.57;1.50;;;-6.90;99.90;;;;;;5029640;28;20040;-77
2021/12/26 03:13:15;;;;;;;4.43;1.60;;;-6.90;99.90;;;;;;5024803;28;20557;-77
2021/12/26 03:15:42;;;;;;;4.10;1.57;;;-6.90;99.90;;;;;;5021801;28;20037;-77
2021/12/26 03:18:09;;;;;;;3.70;1.63;;;-6.90;99.90;;;;;;5069115;28;20045;-77
2021/12/26 03:20:39;;;;;;;5.57;1.70;;;-6.90;99.90;;;;;;5040411;28;20040;-77
2021/12/26 03:23:06;;;;;;;4.70;2.87;;;-6.90;99.90;;;;;;5043267;28;20048;-77
2021/12/26 03:25:33;;;;;;;4.17;1.60;;;-6.90;99.90;;;;;;5028349;28;20083;-77
2021/12/26 03:28:01;;;;;;;4.23;2.57;;;-6.90;99.90;;;;;;5044042;28;20048;-77
2021/12/26 03:30:29;;;;;;;4.17;1.63;;;-6.90;99.90;;;;;;5060573;28;20516;-77
2021/12/26 03:32:57;;;;;;;3.20;1.50;;;-6.90;99.90;;;;;;5063712;28;20064;-77
2021/12/26 03:35:24;;;;;;;2.47;1.23;;;-7.00;99.90;;;;;;5068354;28;20122;-77
2021/12/26 03:37:51;;;;;;;2.37;1.20;;;-7.00;99.90;;;;;;5029069;28;20055;-77
2021/12/26 03:40:16;;;;;;;9.23;2.17;;;-7.00;99.90;;;;;;5038342;28;20509;-77
2021/12/26 03:42:43;;;;;;;3.53;1.53;;;-7.00;99.90;;;;;;5077449;28;20041;-77
2021/12/26 03:45:10;;;;;;;3.13;1.30;;;-7.00;99.90;;;;;;5074073;28;20160;-77
2021/12/26 03:47:37;;;;;;;4.40;1.70;;;-7.00;99.90;;;;;;5061259;28;20033;-77
2021/12/26 03:50:04;;;;;;;6.27;1.90;;;-7.00;99.90;;;;;;5039928;28;22156;-77
2021/12/26 03:52:30;;;;;;;4.10;1.57;;;-7.00;99.90;;;;;;5013338;28;20049;-78
2021/12/26 03:54:56;;;;;;;3.77;1.30;;;-7.00;99.90;;;;;;5055995;28;20416;-77
2021/12/26 03:57:22;;;;;;;3.90;1.60;;;-7.00;99.90;;;;;;5038325;28;20049;-77
2021/12/26 03:59:48;;;;;;;3.33;1.57;;;-7.00;99.90;;;;;;5086676;28;20690;-77
2021/12/26 04:02:15;;;;;;;4.10;1.73;;;-7.00;99.90;;;;;;5039898;28;20033;-77
2021/12/26 04:04:42;;;;;;;3.67;1.80;;;-7.10;99.90;;;;;;5025739;28;20045;-77
2021/12/26 04:07:09;;;;;;;3.67;1.60;;;-7.10;99.90;;;;;;5033168;28;20041;-77
2021/12/26 04:09:35;;;;;;;7.43;2.00;;;-7.10;99.90;;;;;;5026083;28;20040;-77
2021/12/26 04:12:00;;;;;;;5.10;2.00;;;-7.10;99.90;;;;;;5030775;28;20041;-77
2021/12/26 04:14:26;;;;;;;3.77;1.90;;;-7.00;99.90;;;;;;5063489;28;20404;-78
2021/12/26 04:16:52;;;;;;;2.57;1.50;;;-7.00;99.90;;;;;;5028099;28;20045;-77
2021/12/26 04:19:18;;;;;;;3.97;2.33;;;-7.00;99.90;;;;;;5045248;28;20041;-78
2021/12/26 04:21:44;;;;;;;3.50;1.60;;;-7.00;99.90;;;;;;5044680;28;20055;-77
2021/12/26 04:24:09;;;;;;;3.53;1.83;;;-7.00;99.90;;;;;;5032969;28;20500;-78
2021/12/26 04:26:35;;;;;;;4.53;1.70;;;-7.10;99.90;;;;;;5060129;28;20091;-78
2021/12/26 04:29:01;;;;;;;3.17;1.60;;;-7.10;99.90;;;;;;5046330;28;20037;-77
2021/12/26 04:31:26;;;;;;;4.40;1.70;;;-7.10;99.90;;;;;;5049787;28;20519;-77
2021/12/26 04:33:52;;;;;;;3.80;1.70;;;-7.10;99.90;;;;;;5040541;28;20397;-78
2021/12/26 04:36:18;;;;;;;4.93;2.17;;;-7.10;99.90;;;;;;5081520;28;20041;-78
2021/12/26 04:38:44;;;;;;;4.23;1.73;;;-7.10;99.90;;;;;;5046521;28;20030;-78
2021/12/26 04:41:12;;;;;;;3.07;1.70;;;-7.10;99.90;;;;;;5050340;28;20033;-78
2021/12/26 04:43:38;;;;;;;7.67;2.10;;;-7.10;99.90;;;;;;5064178;28;20037;-77
2021/12/26 04:46:07;;;;;;;4.30;1.57;;;-7.20;99.90;;;;;;5030150;28;20099;-77
2021/12/26 04:48:35;;;;;;;6.87;2.30;;;-7.20;99.90;;;;;;5040102;28;20040;-77
2021/12/26 04:51:02;;;;;;;3.33;1.57;;;-7.20;99.90;;;;;;5045463;28;20448;-77
2021/12/26 04:53:28;;;;;;;3.90;1.80;;;-7.20;99.90;;;;;;5069798;28;20098;-77
2021/12/26 04:55:53;;;;;;;3.90;2.17;;;-7.20;99.90;;;;;;5040593;28;20057;-76
2021/12/26 04:58:19;;;;;;;6.87;1.80;;;-7.20;99.90;;;;;;5076202;28;20099;-77
2021/12/26 05:00:45;;;;;;;3.20;1.80;;;-7.20;99.90;;;;;;5074004;28;20033;-75
2021/12/26 05:03:11;;;;;;;4.70;2.00;;;-7.20;99.90;;;;;;5024951;28;20500;-75
2021/12/26 05:05:38;;;;;;;4.33;2.17;;;-7.50;99.90;;;;;;5039606;28;20049;-75
2021/12/26 05:08:04;;;;;;;5.53;2.00;;;-7.20;99.90;;;;;;5035384;28;20041;-75
2021/12/26 05:10:30;;;;;;;5.00;2.40;;;-7.20;99.90;;;;;;5027134;28;20151;-75
2021/12/26 05:12:58;;;;;;;3.93;1.80;;;-7.30;99.90;;;;;;5044814;28;20037;-76
2021/12/26 05:15:24;;;;;;;6.00;2.30;;;-7.20;99.90;;;;;;5045925;28;20040;-75
2021/12/26 05:17:51;;;;;;;3.83;2.70;;;-6.30;99.90;;;;;;5062404;28;20080;-76
2021/12/26 05:20:20;;;;;;;4.43;2.00;;;-7.20;99.90;;;;;;5047361;28;20079;-76
2021/12/26 05:22:48;;;;;;;4.50;2.57;;;-6.20;99.90;;;;;;5063552;28;20040;-76
2021/12/26 05:25:14;;;;;;;3.97;2.20;;;-7.20;99.90;;;;;;5033853;28;20041;-76
2021/12/26 05:27:40;;;;;;;5.33;2.57;;;-7.20;99.90;;;;;;5016903;28;20120;-76
2021/12/26 05:30:09;;;;;;;4.23;2.20;;;-7.20;99.90;;;;;;5073941;28;20041;-76
2021/12/26 05:32:35;;;;;;;3.77;2.13;;;-7.20;99.90;;;;;;5072060;28;20088;-76
2021/12/26 05:35:03;;;;;;;4.90;2.73;;;-7.20;99.90;;;;;;5046039;28;20084;-76
2021/12/26 05:37:29;;;;;;;4.80;2.47;;;-7.20;99.90;;;;;;5037115;28;20033;-76
2021/12/26 05:39:56;;;;;;;4.00;2.53;;;-7.20;99.90;;;;;;5027657;28;20039;-76
2021/12/26 05:42:23;;;;;;;3.87;2.43;;;-7.30;99.90;;;;;;5016838;28;20044;-76
2021/12/26 05:44:48;;;;;;;7.03;2.67;;;-7.20;99.90;;;;;;5050109;28;20045;-76
2021/12/26 05:47:15;;;;;;;6.13;2.90;;;-7.20;99.90;;;;;;5074662;28;20052;-76
2021/12/26 05:49:41;;;;;;;4.60;2.20;;;-7.30;99.90;;;;;;5031622;28;20033;-76
2021/12/26 05:52:08;;;;;;;3.73;2.30;;;-7.20;99.90;;;;;;5051476;28;20049;-76
2021/12/26 05:54:34;;;;;;;6.80;2.70;;;-7.20;99.90;;;;;;5049452;28;20041;-76
2021/12/26 05:57:01;;;;;;;5.77;3.07;;;-7.20;99.90;;;;;;5065785;28;20041;-76
2021/12/26 05:59:27;;;;;;;6.20;2.70;;;-7.20;99.90;;;;;;5028811;28;20473;-76
2021/12/26 06:01:52;;;;;;;8.30;5.00;;;-7.20;99.90;;;;;;5063777;28;20029;-76
2021/12/26 06:04:18;;;;;;;5.30;3.00;;;-7.20;99.90;;;;;;5032235;28;20040;-76
2021/12/26 06:06:44;;;;;;;5.00;2.73;;;-7.20;99.90;;;;;;5049157;28;20124;-76
2021/12/26 06:09:10;;;;;;;5.00;2.23;;;-7.20;99.90;;;;;;5074738;28;20456;-76
2021/12/26 06:11:37;;;;;;;5.37;3.00;;;-7.20;99.90;;;;;;5031468;28;20051;-76
2021/12/26 06:14:03;;;;;;;6.40;3.03;;;-6.80;99.90;;;;;;5024465;28;20055;-76
2021/12/26 06:16:29;;;;;;;6.43;2.60;;;-7.20;99.90;;;;;;5029780;28;20393;-76
2021/12/26 06:18:54;;;;;;;7.47;2.83;;;-7.20;99.90;;;;;;5045089;28;20036;-76
2021/12/26 06:21:20;;;;;;;6.03;2.73;;;-7.10;99.90;;;;;;5014801;28;20043;-76
2021/12/26 06:23:50;;;;;;;5.33;3.17;;;-7.10;99.90;;;;;;5045508;28;20103;-76
2021/12/26 06:26:20;;;;;;;7.83;2.90;;;-7.20;99.90;;;;;;5045800;28;20087;-75
2021/12/26 06:28:46;;;;;;;4.07;2.67;;;-7.10;99.90;;;;;;5010016;28;20065;-75
2021/12/26 06:31:12;;;;;;;6.80;2.70;;;-7.20;99.90;;;;;;5049108;28;20067;-76
2021/12/26 06:33:38;;;;;;;7.50;2.93;;;-7.10;99.90;;;;;;5046249;28;20060;-75
2021/12/26 06:36:05;;;;;;;5.67;3.10;;;-7.10;99.90;;;;;;5080551;28;20520;-75
2021/12/26 06:38:34;;;;;;;7.57;3.30;;;-7.10;99.90;;;;;;5044818;28;20124;-75
2021/12/26 06:41:01;;;;;;;7.13;3.43;;;-7.10;99.90;;;;;;5025278;28;20081;-75
2021/12/26 06:43:27;;;;;;;6.33;2.80;;;-7.10;99.90;;;;;;5028536;28;20029;-76
2021/12/26 06:45:53;;;;;;;7.10;3.33;;;-7.10;99.90;;;;;;5074595;28;20052;-76
2021/12/26 06:48:20;;;;;;;5.23;2.93;;;-7.10;99.90;;;;;;5080695;28;20049;-75
2021/12/26 06:50:47;;;;;;;7.13;2.90;;;-6.20;99.90;;;;;;5045121;28;20060;-76
2021/12/26 06:53:14;;;;;;;5.83;3.37;;;-7.00;99.90;;;;;;5028912;28;20045;-76
2021/12/26 06:55:40;;;;;;;6.70;3.67;;;-7.00;99.90;;;;;;5029034;28;20077;-76
2021/12/26 06:58:06;;;;;;;5.40;3.33;;;-7.00;99.90;;;;;;5045395;28;20037;-76
2021/12/26 07:00:32;;;;;;;7.53;3.10;;;-6.90;99.90;;;;;;5046675;28;20111;-76
2021/12/26 07:02:58;;;;;;;7.07;3.43;;;-6.90;99.90;;;;;;5045075;28;20068;-75
2021/12/26 07:05:24;;;;;;;8.57;3.20;;;-6.90;99.90;;;;;;5027853;28;20110;-75
2021/12/26 07:07:50;;;;;;;4.63;3.07;;;-6.90;99.90;;;;;;5043355;28;20078;-75
2021/12/26 07:10:16;;;;;;;7.10;3.70;;;-6.90;99.90;;;;;;5041685;28;20047;-75
2021/12/26 07:12:42;;;;;;;8.10;3.37;;;-6.90;99.90;;;;;;5040771;28;20033;-75
2021/12/26 07:15:08;;;;;;;8.07;3.43;;;-6.90;99.90;;;;;;5040737;28;20037;-75
2021/12/26 07:17:34;;;;;;;6.47;2.97;;;-6.90;99.90;;;;;;5043420;28;20069;-75
2021/12/26 07:20:00;;;;;;;7.33;3.07;;;-6.90;99.90;;;;;;5040219;28;20067;-76
2021/12/26 07:22:26;;;;;;;6.73;3.87;;;-6.90;99.90;;;;;;5043963;28;20451;-75
2021/12/26 07:24:51;;;;;;;7.13;3.63;;;-6.90;99.90;;;;;;5027454;28;20041;-75
2021/12/26 07:27:17;;;;;;;6.40;3.30;;;-6.90;99.90;;;;;;5073612;28;20092;-75
2021/12/26 07:29:43;;;;;;;6.53;3.47;;;-6.90;99.90;;;;;;5047729;28;20048;-76
2021/12/26 07:32:11;;;;;;;8.43;3.90;;;-6.90;99.90;;;;;;5043317;28;20042;-75
2021/12/26 07:34:37;;;;;;;5.30;3.03;;;-6.90;99.90;;;;;;5080244;28;20110;-76
2021/12/26 07:37:03;;;;;;;7.57;3.43;;;-6.90;99.90;;;;;;5040003;28;20033;-74
2021/12/26 07:39:29;;;;;;;9.57;3.33;;;-6.90;99.90;;;;;;5028816;28;20032;-74
2021/12/26 07:41:56;;;;;;;5.20;3.33;;;-6.80;99.90;;;;;;5043282;28;20035;-76
2021/12/26 07:44:21;;;;;;;6.60;3.70;;;-6.80;99.90;;;;;;5040521;28;20032;-76
2021/12/26 07:46:47;;;;;;;6.23;3.23;;;-6.80;99.90;;;;;;5074318;28;20059;-75
2021/12/26 07:49:13;;;;;;;7.63;3.70;;;-6.80;99.90;;;;;;5040525;28;20108;-76
2021/12/26 07:51:39;;;;;;;8.00;3.97;;;-6.80;99.90;;;;;;5038059;28;20167;-76
2021/12/26 07:54:05;;;;;;;8.47;3.70;;;-6.80;99.90;;;;;;5042182;28;20420;-76
2021/12/26 07:56:31;;;;;;;6.83;3.30;;;-6.80;99.90;;;;;;5056348;28;20049;-75
2021/12/26 07:58:58;;;;;;;6.80;3.63;;;-6.80;99.90;;;;;;5077650;28;20044;-75
2021/12/26 08:01:27;;;;;;;6.00;4.00;;;-6.80;99.90;;;;;;5060536;28;20052;-75
2021/12/26 08:03:52;;;;;;;8.93;4.20;;;-6.80;99.90;;;;;;5047042;28;20793;-76
2021/12/26 08:06:20;;;;;;;6.23;3.27;;;-6.70;99.90;;;;;;5077748;28;20116;-73
2021/12/26 08:08:47;;;;;;;6.13;3.43;;;-6.70;99.90;;;;;;5045391;28;20048;-76
2021/12/26 08:11:13;;;;;;;8.90;4.10;;;-6.70;99.90;;;;;;5023414;28;20041;-75
2021/12/26 08:13:39;;;;;;;7.80;4.07;;;-6.70;99.90;;;;;;5027355;28;20033;-76
2021/12/26 08:16:06;;;;;;;7.47;4.00;;;-6.70;99.90;;;;;;5047093;28;20056;-76
2021/12/26 08:18:33;;;;;;;5.33;3.27;;;-6.70;99.90;;;;;;5042709;28;20029;-76
2021/12/26 08:20:59;;;;;;;10.63;4.10;;;-6.60;99.90;;;;;;5019324;28;20064;-76
2021/12/26 08:23:25;;;;;;;9.70;4.17;;;-6.60;99.90;;;;;;5060332;28;20126;-76
2021/12/26 08:25:51;;;;;;;7.73;4.03;;;-6.60;99.90;;;;;;5045883;28;20107;-76
2021/12/26 08:28:16;;;;;;;9.33;4.57;;;-6.50;99.90;;;;;;5028644;28;20401;-75
2021/12/26 08:30:43;;;;;;;9.30;3.93;;;-6.50;99.90;;;;;;5046041;28;20056;-76
2021/12/26 08:33:09;;;;;;;8.13;3.90;;;-6.40;99.90;;;;;;5056558;28;20068;-75
2021/12/26 08:35:36;;;;;;;8.47;3.73;;;-6.40;99.90;;;;;;5037595;28;20136;-76
2021/12/26 08:38:03;;;;;;;7.03;3.73;;;-6.30;99.90;;;;;;5025336;28;20060;-76
2021/12/26 08:40:29;;;;;;;8.37;3.93;;;-6.20;99.90;;;;;;5041231;28;20041;-77
2021/12/26 08:42:55;;;;;;;7.27;3.83;;;-6.20;99.90;;;;;;5039702;28;20040;-76
2021/12/26 08:45:21;;;;;;;9.13;3.77;;;-6.20;99.90;;;;;;5068478;28;20049;-77
2021/12/26 08:47:48;;;;;;;6.77;3.53;;;-6.10;99.90;;;;;;5065175;28;20350;-76
2021/12/26 08:50:15;;;;;;;7.07;3.90;;;-5.40;99.90;;;;;;5017316;28;20091;-77
2021/12/26 08:52:42;;;;;;;6.67;3.60;;;-6.00;99.90;;;;;;5079103;28;20060;-76
2021/12/26 08:55:10;;;;;;;8.10;4.97;;;-5.90;99.90;;;;;;5029497;28;20097;-76
2021/12/26 08:57:36;;;;;;;7.73;4.87;;;-5.80;99.90;;;;;;5053198;28;20107;-76
2021/12/26 09:00:05;;;;;;;8.23;5.27;;;-5.80;99.90;;;;;;5081549;28;20041;-75
2021/12/26 09:02:31;;;;;;;9.10;4.40;;;-5.70;99.90;;;;;;5062522;28;20123;-76
2021/12/26 09:04:56;;;;;;;8.27;3.90;;;-5.60;99.90;;;;;;5045692;28;20132;-76
2021/12/26 09:07:22;;;;;;;7.10;3.97;;;-5.50;99.90;;;;;;5028778;28;20041;-76
2021/12/26 09:09:48;;;;;;;7.90;4.23;;;-5.50;99.90;;;;;;5026340;28;21544;-74
2021/12/26 09:12:14;;;;;;;6.17;3.80;;;-5.40;99.90;;;;;;5004218;28;20040;-76
2021/12/26 09:14:40;;;;;;;5.87;3.83;;;-5.30;99.90;;;;;;5059449;28;20029;-76
2021/12/26 09:17:07;;;;;;;6.40;3.50;;;-5.30;99.90;;;;;;5075972;28;20040;-76
2021/12/26 09:19:34;;;;;;;6.27;3.67;;;-5.20;99.90;;;;;;5024246;28;20135;-77
2021/12/26 09:22:05;;;;;;;7.87;4.43;;;-5.20;99.90;;;;;;5058595;28;20041;-79
2021/12/26 09:24:31;;;;;;;9.18;3.88;;;-5.10;99.90;;;;;;5061423;28;20044;-77
2021/12/26 09:26:57;;;;;;;6.67;3.97;;;-5.00;99.90;;;;;;5044439;28;20040;-77
2021/12/26 09:29:23;;;;;;;12.53;4.17;;;-5.00;99.90;;;;;;5077467;28;20052;-77
2021/12/26 09:31:50;;;;;;;11.00;4.17;;;-5.00;99.90;;;;;;5061070;28;20114;-76
2021/12/26 09:34:16;;;;;;;6.57;4.20;;;-4.90;99.90;;;;;;5027455;28;20068;-73
2021/12/26 09:36:43;;;;;;;10.77;5.70;;;-4.80;99.90;;;;;;5044583;28;20041;-74
2021/12/26 09:39:09;;;;;;;7.17;4.70;;;-4.70;99.90;;;;;;5045005;28;20041;-74
2021/12/26 09:41:36;;;;;;;11.10;5.60;;;-4.60;99.90;;;;;;5044081;28;20043;-74
2021/12/26 09:44:02;;;;;;;9.03;5.13;;;-4.50;99.90;;;;;;5028682;28;20047;-73
2021/12/26 09:46:31;;;;;;;5.70;3.77;;;-4.20;99.90;;;;;;5025024;28;20048;-74
2021/12/26 09:48:57;;;;;;;7.37;3.90;;;-4.40;99.90;;;;;;5044609;28;20122;-74
2021/12/26 09:51:24;;;;;;;7.07;4.37;;;-4.20;99.90;;;;;;5006447;28;20688;-75
2021/12/26 09:53:50;;;;;;;7.83;3.60;;;-4.10;99.90;;;;;;5025867;28;20081;-75
2021/12/26 09:56:16;;;;;;;6.37;3.80;;;-3.70;99.90;;;;;;5005102;28;20053;-75
2021/12/26 09:59:04;;;;;;;6.07;3.60;;;-4.20;99.90;;;;;;4993501;28;20037;-75
2021/12/26 10:01:34;;;;;;;6.30;4.13;;;-4.20;99.90;;;;;;5025738;28;20352;-75
2021/12/26 10:04:19;;;;;;;6.97;3.73;;;-3.80;99.90;;;;;;4990454;28;20049;-73
2021/12/26 10:06:46;;;;;;;6.23;3.57;;;-3.90;99.90;;;;;;5024686;28;20053;-74
2021/12/26 10:09:13;;;;;;;5.40;3.40;;;-3.80;99.90;;;;;;5042232;28;20099;-74
2021/12/26 10:11:45;;;;;;;6.60;3.30;;;-4.00;99.90;;;;;;4991382;28;20398;-74
2021/12/26 10:14:17;;;;;;;6.27;3.57;;;-3.30;99.90;;;;;;5026341;28;20041;-75
2021/12/26 10:16:45;;;;;;;7.00;3.80;;;-3.80;99.90;;;;;;4993421;28;20508;-75
2021/12/26 10:19:15;;;;;;;6.00;3.70;;;-3.80;99.90;;;;;;5003369;28;20552;-74
2021/12/26 10:21:56;;;;;;;5.33;3.30;;;-3.80;99.90;;;;;;5009357;28;20517;-75
2021/12/26 10:24:24;;;;;;;8.00;4.30;;;-3.70;99.90;;;;;;4988250;28;23099;-76
2021/12/26 10:26:53;;;;;;;9.60;5.77;;;-3.60;99.90;;;;;;5004861;28;20057;-74
2021/12/26 10:29:33;;;;;;;6.80;3.53;;;-3.60;99.90;;;;;;4994379;28;20046;-74
2021/12/26 10:32:33;;;;;;;8.77;5.27;;;-3.50;99.90;;;;;;5016937;28;20061;-75
2021/12/26 10:35:07;;;;;;;6.57;3.95;;;-3.40;99.90;;;;;;5000304;28;20045;-74
2021/12/26 10:37:40;;;;;;;6.57;3.65;;;-3.40;99.90;;;;;;5009314;28;20037;-75
2021/12/26 10:40:17;;;;;;;6.03;3.53;;;-3.30;99.90;;;;;;5008449;28;20041;-75
2021/12/26 10:42:52;;;;;;;6.90;3.93;;;-3.20;99.90;;;;;;5010842;28;20263;-75
2021/12/26 10:45:21;;;;;;;6.82;4.30;;;-3.20;99.90;;;;;;5023976;28;20053;-75
2021/12/26 10:47:53;;;;;;;8.15;4.20;;;-3.10;99.90;;;;;;5010191;28;20116;-74
2021/12/26 10:50:22;;;;;;;5.45;3.78;;;-3.00;99.90;;;;;;5038538;28;20124;-75
2021/12/26 10:53:00;;;;;;;6.63;3.83;;;-2.90;99.90;;;;;;5006685;28;20034;-74
2021/12/26 10:55:37;;;;;;;7.20;3.78;;;-2.80;99.90;;;;;;5030244;28;20084;-73
2021/12/26 10:58:08;;;;;;;7.40;4.07;;;-2.80;99.90;;;;;;5019638;28;20039;-75
2021/12/26 11:00:40;;;;;;;8.18;4.22;;;-2.50;99.90;;;;;;5050567;28;20504;-75
2021/12/26 11:03:11;;;;;;;6.85;3.90;;;-2.60;99.90;;;;;;5073459;28;20041;-75
2021/12/26 11:05:45;;;;;;;7.20;4.38;;;-2.60;99.90;;;;;;5078915;28;20486;-76
2021/12/26 11:08:17;;;;;;;5.82;3.10;;;-2.50;99.90;;;;;;5021704;28;20039;-75
2021/12/26 11:10:44;;;;;;;;;;;-2.40;99.90;;;;;;5052162;28;20446;-76
2021/12/26 11:13:22;;;;;;;5.68;3.60;;;-2.40;99.90;;;;;;5045360;28;19924;-76
2021/12/26 11:15:49;;;;;;;7.75;3.85;;;-2.20;99.90;;;;;;5044934;28;20033;-76
2021/12/26 11:18:19;;;;;;;6.47;3.90;;;-2.10;99.90;;;;;;5044928;28;20064;-76
2021/12/26 11:20:49;;;;;;;6.15;3.78;;;-0.70;99.90;;;;;;5078683;28;20106;-76
2021/12/26 11:23:18;;;;;;;5.65;3.55;;;-2.00;99.90;;;;;;5062426;28;20725;-76
2021/12/26 11:25:53;;;;;;;8.35;4.05;;;-1.90;99.90;;;;;;5042200;28;20033;-75
2021/12/26 11:28:30;;;;;;;5.63;3.28;;;-1.80;99.90;;;;;;5116331;27;1271303;-70
2021/12/26 11:31:00;;;;;;;6.50;3.78;;;-1.70;99.90;;;;;;5107474;27;20047;-70
2021/12/26 11:33:26;;;;;;;5.50;3.85;;;-1.70;99.90;;;;;;5119035;27;20405;-70
2021/12/26 11:35:53;;;;;;;6.30;3.28;;;-1.50;99.90;;;;;;5123398;27;20046;-70
2021/12/26 11:38:22;;;;;;;6.80;3.72;;;-1.40;99.90;;;;;;5121978;27;20215;-70
2021/12/26 11:40:56;;;;;;;7.05;3.92;;;-1.30;99.90;;;;;;5120323;27;20035;-69
2021/12/26 11:43:52;;;;;;;4.47;2.97;;;-1.10;99.90;;;;;;5125504;27;20110;-69
2021/12/26 11:46:21;;;;;;;6.32;3.55;;;-0.80;99.90;;;;;;5124332;27;20040;-71
2021/12/26 11:49:09;;;;;;;7.25;3.80;;;-0.70;99.90;;;;;;5125271;27;20042;-71
2021/12/26 11:52:06;;;;;;;5.68;3.20;;;-0.70;99.90;;;;;;5123426;27;20039;-70
2021/12/26 11:54:53;;;;;;;9.07;3.35;;;-0.40;99.90;;;;;;5099537;27;20062;-70
2021/12/26 11:57:37;;;;;;;6.15;3.28;;;-0.10;99.90;;;;;;5121228;27;20073;-70
2021/12/26 12:00:06;;;;;;;7.03;3.75;;;0.40;99.90;;;;;;5125441;27;20035;-71
2021/12/26 12:02:42;;;;;;;5.10;3.47;;;0.90;99.90;;;;;;5120123;27;20043;-71
2021/12/26 12:05:14;;;;;;;7.28;3.58;;;1.40;99.90;;;;;;5101915;28;20035;-71
2021/12/26 12:07:49;;;;;;;6.30;2.80;;;1.40;99.90;;;;;;5107599;27;20042;-71
2021/12/26 12:10:42;;;;;;;5.18;3.35;;;1.40;99.90;;;;;;5108456;28;20039;-70
2021/12/26 12:13:10;;;;;;;5.53;3.28;;;1.60;99.90;;;;;;5077262;28;20041;-70
2021/12/26 12:15:51;;;;;;;5.40;3.50;;;1.60;99.90;;;;;;5107505;28;20499;-70
2021/12/26 12:18:26;;;;;;;7.10;3.42;;;1.50;99.90;;;;;;5101716;28;20257;-70
2021/12/26 12:21:15;;;;;;;5.78;3.33;;;1.30;99.90;;;;;;5104717;28;20783;-70
2021/12/26 12:24:03;;;;;;;6.20;3.65;;;0.90;99.90;;;;;;5102815;28;20047;-71
2021/12/26 12:26:41;;;;;;;6.95;4.03;;;0.70;99.90;;;;;;5106111;28;20035;-69
2021/12/26 12:29:07;;;;;;;7.38;4.20;;;0.50;99.90;;;;;;5102800;28;20104;-69
2021/12/26 12:31:33;;;;;;;5.13;3.33;;;0.30;99.90;;;;;;5105356;28;20039;-70
2021/12/26 12:34:05;;;;;;;5.40;3.85;;;0.20;99.90;;;;;;5080667;28;20077;-71
2021/12/26 12:36:33;;;;;;;7.68;3.70;;;0.10;99.90;;;;;;5104035;28;20077;-69
2021/12/26 12:39:17;;;;;;;6.53;3.70;;;0.10;99.90;;;;;;5092789;28;20042;-69
2021/12/26 12:41:51;;;;;;;6.18;3.28;;;0.20;99.90;;;;;;5091704;28;20035;-69
2021/12/26 12:44:25;;;;;;;7.70;3.70;;;0.20;99.90;;;;;;5087029;28;20495;-69
2021/12/26 12:47:16;;;;;;;7.55;4.25;;;0.50;99.90;;;;;;5090817;28;20039;-68
2021/12/26 12:49:54;;;;;;;8.10;3.33;;;0.20;99.90;;;;;;5077529;28;20052;-70
2021/12/26 12:52:40;;;;;;;5.50;3.47;;;0.80;99.90;;;;;;5097330;28;20035;-70
2021/12/26 12:55:16;;;;;;;8.52;4.95;;;0.10;99.90;;;;;;5085850;28;20115;-69
2021/12/26 12:57:55;;;;;;;9.57;4.95;;;0.10;99.90;;;;;;5086808;28;20058;-69
2021/12/26 13:00:23;;;;;;;6.35;4.10;;;0.40;99.90;;;;;;5098343;28;20048;-68
2021/12/26 13:02:50;;;;;;;6.20;3.67;;;0.10;99.90;;;;;;5087208;28;20649;-68